sensor_id;sensor_type;location;lat;lon;timestamp;P1;durP1;ratioP1;P2;durP2;ratioP2
29848;SDS011;16728;50.832;5.590;2022-07-15T00:00:05;5.95;;;2.00;;
29848;SDS011;16728;50.832;5.590;2022-07-15T00:03:09;8.63;;;2.55;;
29848;SDS011;16728;50.832;5.590;2022-07-15T00:06:11;6.38;;;2.30;;
29848;SDS011;16728;50.832;5.590;2022-07-15T00:09:13;5.15;;;2.40;;
29848;SDS011;16728;50.832;5.590;2022-07-15T00:12:15;5.40;;;2.60;;
29848;SDS011;16728;50.832;5.590;2022-07-15T00:15:18;9.57;;;2.53;;
29848;SDS011;16728;50.832;5.590;2022-07-15T00:18:22;6.63;;;2.30;;
29848;SDS011;16728;50.832;5.590;2022-07-15T00:21:24;6.28;;;2.55;;
29848;SDS011;16728;50.832;5.590;2022-07-15T00:24:27;5.90;;;2.38;;
29848;SDS011;16728;50.832;5.590;2022-07-15T00:27:30;7.20;;;2.70;;
29848;SDS011;16728;50.832;5.590;2022-07-15T00:30:33;7.97;;;3.00;;
29848;SDS011;16728;50.832;5.590;2022-07-15T00:33:36;11.20;;;2.80;;
29848;SDS011;16728;50.832;5.590;2022-07-15T00:36:38;9.82;;;2.65;;
29848;SDS011;16728;50.832;5.590;2022-07-15T00:39:40;5.88;;;2.65;;
29848;SDS011;16728;50.832;5.590;2022-07-15T00:42:42;9.45;;;2.33;;
29848;SDS011;16728;50.832;5.590;2022-07-15T00:45:47;9.13;;;2.95;;
29848;SDS011;16728;50.832;5.590;2022-07-15T00:48:49;7.18;;;2.85;;
29848;SDS011;16728;50.832;5.590;2022-07-15T00:51:51;8.07;;;2.63;;
29848;SDS011;16728;50.832;5.590;2022-07-15T00:54:57;7.30;;;2.50;;
29848;SDS011;16728;50.832;5.590;2022-07-15T00:58:02;8.73;;;2.50;;
29848;SDS011;16728;50.832;5.590;2022-07-15T01:01:06;6.75;;;2.13;;
29848;SDS011;16728;50.832;5.590;2022-07-15T01:04:10;11.90;;;2.63;;
29848;SDS011;16728;50.832;5.590;2022-07-15T01:07:14;4.93;;;2.10;;
29848;SDS011;16728;50.832;5.590;2022-07-15T01:10:16;7.15;;;3.30;;
29848;SDS011;16728;50.832;5.590;2022-07-15T01:16:22;9.57;;;2.40;;
29848;SDS011;16728;50.832;5.590;2022-07-15T01:19:24;7.28;;;2.38;;
29848;SDS011;16728;50.832;5.590;2022-07-15T01:22:26;10.40;;;2.58;;
29848;SDS011;16728;50.832;5.590;2022-07-15T01:25:28;9.13;;;2.45;;
29848;SDS011;16728;50.832;5.590;2022-07-15T01:28:30;8.48;;;2.50;;
29848;SDS011;16728;50.832;5.590;2022-07-15T01:31:32;11.45;;;2.80;;
29848;SDS011;16728;50.832;5.590;2022-07-15T01:34:34;11.48;;;2.60;;
29848;SDS011;16728;50.832;5.590;2022-07-15T01:37:36;8.35;;;2.88;;
29848;SDS011;16728;50.832;5.590;2022-07-15T01:40:38;10.10;;;2.58;;
29848;SDS011;16728;50.832;5.590;2022-07-15T01:43:40;8.50;;;2.60;;
29848;SDS011;16728;50.832;5.590;2022-07-15T01:46:42;12.07;;;2.47;;
29848;SDS011;16728;50.832;5.590;2022-07-15T01:49:44;4.88;;;2.38;;
29848;SDS011;16728;50.832;5.590;2022-07-15T01:52:46;9.73;;;2.47;;
29848;SDS011;16728;50.832;5.590;2022-07-15T01:55:48;8.75;;;2.28;;
29848;SDS011;16728;50.832;5.590;2022-07-15T01:58:50;7.30;;;2.47;;
29848;SDS011;16728;50.832;5.590;2022-07-15T02:01:53;9.27;;;2.63;;
29848;SDS011;16728;50.832;5.590;2022-07-15T02:04:56;6.47;;;2.65;;
29848;SDS011;16728;50.832;5.590;2022-07-15T02:07:58;5.35;;;2.08;;
29848;SDS011;16728;50.832;5.590;2022-07-15T02:11:00;5.32;;;2.60;;
29848;SDS011;16728;50.832;5.590;2022-07-15T02:14:02;11.32;;;2.75;;
29848;SDS011;16728;50.832;5.590;2022-07-15T02:17:04;4.25;;;1.98;;
29848;SDS011;16728;50.832;5.590;2022-07-15T02:20:06;7.82;;;2.78;;
29848;SDS011;16728;50.832;5.590;2022-07-15T02:23:08;8.63;;;2.78;;
29848;SDS011;16728;50.832;5.590;2022-07-15T02:26:10;7.60;;;2.55;;
29848;SDS011;16728;50.832;5.590;2022-07-15T02:29:13;8.10;;;2.85;;
29848;SDS011;16728;50.832;5.590;2022-07-15T02:32:15;9.82;;;2.83;;
29848;SDS011;16728;50.832;5.590;2022-07-15T02:35:16;8.70;;;3.20;;
29848;SDS011;16728;50.832;5.590;2022-07-15T02:38:19;4.80;;;2.60;;
29848;SDS011;16728;50.832;5.590;2022-07-15T02:44:24;9.00;;;2.80;;
29848;SDS011;16728;50.832;5.590;2022-07-15T02:47:26;8.52;;;2.50;;
29848;SDS011;16728;50.832;5.590;2022-07-15T02:50:28;12.07;;;2.80;;
29848;SDS011;16728;50.832;5.590;2022-07-15T02:53:30;9.05;;;2.83;;
29848;SDS011;16728;50.832;5.590;2022-07-15T02:56:32;8.75;;;3.03;;
29848;SDS011;16728;50.832;5.590;2022-07-15T02:59:34;10.48;;;3.67;;
29848;SDS011;16728;50.832;5.590;2022-07-15T03:02:37;8.82;;;3.00;;
29848;SDS011;16728;50.832;5.590;2022-07-15T03:05:39;8.98;;;3.33;;
29848;SDS011;16728;50.832;5.590;2022-07-15T03:08:41;9.32;;;3.13;;
29848;SDS011;16728;50.832;5.590;2022-07-15T03:11:43;8.90;;;3.20;;
29848;SDS011;16728;50.832;5.590;2022-07-15T03:14:46;11.90;;;3.30;;
29848;SDS011;16728;50.832;5.590;2022-07-15T03:17:47;7.45;;;2.88;;
29848;SDS011;16728;50.832;5.590;2022-07-15T03:20:49;7.80;;;3.50;;
29848;SDS011;16728;50.832;5.590;2022-07-15T03:23:52;8.75;;;3.25;;
29848;SDS011;16728;50.832;5.590;2022-07-15T03:26:53;8.30;;;3.40;;
29848;SDS011;16728;50.832;5.590;2022-07-15T03:29:55;7.35;;;3.38;;
29848;SDS011;16728;50.832;5.590;2022-07-15T03:32:57;8.40;;;3.47;;
29848;SDS011;16728;50.832;5.590;2022-07-15T03:35:59;9.13;;;3.20;;
29848;SDS011;16728;50.832;5.590;2022-07-15T03:39:01;7.57;;;3.47;;
29848;SDS011;16728;50.832;5.590;2022-07-15T03:42:04;9.23;;;3.63;;
29848;SDS011;16728;50.832;5.590;2022-07-15T03:45:06;9.80;;;3.00;;
29848;SDS011;16728;50.832;5.590;2022-07-15T03:48:09;5.80;;;2.95;;
29848;SDS011;16728;50.832;5.590;2022-07-15T03:51:11;9.45;;;3.50;;
29848;SDS011;16728;50.832;5.590;2022-07-15T03:54:13;6.57;;;3.00;;
29848;SDS011;16728;50.832;5.590;2022-07-15T03:57:15;9.77;;;3.05;;
29848;SDS011;16728;50.832;5.590;2022-07-15T04:00:17;11.30;;;4.50;;
29848;SDS011;16728;50.832;5.590;2022-07-15T04:03:19;9.43;;;3.13;;
29848;SDS011;16728;50.832;5.590;2022-07-15T04:06:22;11.50;;;3.45;;
29848;SDS011;16728;50.832;5.590;2022-07-15T04:09:25;8.90;;;3.88;;
29848;SDS011;16728;50.832;5.590;2022-07-15T04:12:27;7.43;;;3.00;;
29848;SDS011;16728;50.832;5.590;2022-07-15T04:15:29;9.52;;;3.35;;
29848;SDS011;16728;50.832;5.590;2022-07-15T04:18:31;15.23;;;3.67;;
29848;SDS011;16728;50.832;5.590;2022-07-15T04:21:35;5.30;;;2.95;;
29848;SDS011;16728;50.832;5.590;2022-07-15T04:24:37;9.88;;;2.90;;
29848;SDS011;16728;50.832;5.590;2022-07-15T04:27:40;7.68;;;3.55;;
29848;SDS011;16728;50.832;5.590;2022-07-15T04:30:41;11.05;;;3.10;;
29848;SDS011;16728;50.832;5.590;2022-07-15T04:33:43;6.13;;;3.10;;
29848;SDS011;16728;50.832;5.590;2022-07-15T04:36:45;7.50;;;3.35;;
29848;SDS011;16728;50.832;5.590;2022-07-15T04:39:47;9.32;;;3.58;;
29848;SDS011;16728;50.832;5.590;2022-07-15T04:42:49;8.13;;;3.22;;
29848;SDS011;16728;50.832;5.590;2022-07-15T04:45:51;11.18;;;3.20;;
29848;SDS011;16728;50.832;5.590;2022-07-15T04:48:59;6.68;;;3.50;;
29848;SDS011;16728;50.832;5.590;2022-07-15T04:52:20;4.82;;;2.92;;
29848;SDS011;16728;50.832;5.590;2022-07-15T04:55:21;8.02;;;3.67;;
29848;SDS011;16728;50.832;5.590;2022-07-15T04:58:23;7.80;;;3.72;;
29848;SDS011;16728;50.832;5.590;2022-07-15T05:01:25;10.90;;;3.80;;
29848;SDS011;16728;50.832;5.590;2022-07-15T05:04:31;9.82;;;3.42;;
29848;SDS011;16728;50.832;5.590;2022-07-15T05:07:33;9.95;;;4.28;;
29848;SDS011;16728;50.832;5.590;2022-07-15T05:10:35;14.60;;;3.72;;
29848;SDS011;16728;50.832;5.590;2022-07-15T05:13:37;15.32;;;4.55;;
29848;SDS011;16728;50.832;5.590;2022-07-15T05:16:39;6.75;;;3.70;;
29848;SDS011;16728;50.832;5.590;2022-07-15T05:19:41;7.63;;;3.47;;
29848;SDS011;16728;50.832;5.590;2022-07-15T05:22:43;9.13;;;3.80;;
29848;SDS011;16728;50.832;5.590;2022-07-15T05:25:45;8.52;;;3.80;;
29848;SDS011;16728;50.832;5.590;2022-07-15T05:28:47;9.60;;;4.32;;
29848;SDS011;16728;50.832;5.590;2022-07-15T05:31:49;11.73;;;4.85;;
29848;SDS011;16728;50.832;5.590;2022-07-15T05:34:51;8.93;;;3.92;;
29848;SDS011;16728;50.832;5.590;2022-07-15T05:37:53;11.57;;;4.75;;
29848;SDS011;16728;50.832;5.590;2022-07-15T05:40:55;10.45;;;4.03;;
29848;SDS011;16728;50.832;5.590;2022-07-15T05:43:57;9.93;;;4.15;;
29848;SDS011;16728;50.832;5.590;2022-07-15T05:46:59;8.15;;;4.20;;
29848;SDS011;16728;50.832;5.590;2022-07-15T05:50:01;8.52;;;4.20;;
29848;SDS011;16728;50.832;5.590;2022-07-15T05:53:03;9.85;;;5.03;;
29848;SDS011;16728;50.832;5.590;2022-07-15T05:56:05;14.10;;;4.88;;
29848;SDS011;16728;50.832;5.590;2022-07-15T05:59:08;12.10;;;4.23;;
29848;SDS011;16728;50.832;5.590;2022-07-15T06:02:10;12.75;;;4.78;;
29848;SDS011;16728;50.832;5.590;2022-07-15T06:05:15;11.93;;;4.60;;
29848;SDS011;16728;50.832;5.590;2022-07-15T06:08:18;10.43;;;4.88;;
29848;SDS011;16728;50.832;5.590;2022-07-15T06:11:20;14.50;;;4.90;;
29848;SDS011;16728;50.832;5.590;2022-07-15T06:14:23;13.43;;;4.50;;
29848;SDS011;16728;50.832;5.590;2022-07-15T06:17:24;9.15;;;4.40;;
29848;SDS011;16728;50.832;5.590;2022-07-15T06:20:26;12.68;;;4.57;;
29848;SDS011;16728;50.832;5.590;2022-07-15T06:23:29;14.73;;;4.83;;
29848;SDS011;16728;50.832;5.590;2022-07-15T06:26:31;9.63;;;4.20;;
29848;SDS011;16728;50.832;5.590;2022-07-15T06:29:33;11.35;;;3.55;;
29848;SDS011;16728;50.832;5.590;2022-07-15T06:32:34;11.73;;;3.78;;
29848;SDS011;16728;50.832;5.590;2022-07-15T06:35:37;13.43;;;4.53;;
29848;SDS011;16728;50.832;5.590;2022-07-15T06:38:45;12.85;;;3.63;;
29848;SDS011;16728;50.832;5.590;2022-07-15T06:41:51;10.88;;;3.72;;
29848;SDS011;16728;50.832;5.590;2022-07-15T06:44:52;12.65;;;3.83;;
29848;SDS011;16728;50.832;5.590;2022-07-15T06:47:54;14.50;;;4.25;;
29848;SDS011;16728;50.832;5.590;2022-07-15T06:50:56;22.27;;;3.42;;
29848;SDS011;16728;50.832;5.590;2022-07-15T06:53:58;7.95;;;2.20;;
29848;SDS011;16728;50.832;5.590;2022-07-15T06:57:00;7.82;;;2.60;;
29848;SDS011;16728;50.832;5.590;2022-07-15T07:00:03;12.23;;;2.55;;
29848;SDS011;16728;50.832;5.590;2022-07-15T07:03:07;4.65;;;1.90;;
29848;SDS011;16728;50.832;5.590;2022-07-15T07:06:09;5.28;;;1.75;;
29848;SDS011;16728;50.832;5.590;2022-07-15T07:09:11;8.02;;;2.10;;
29848;SDS011;16728;50.832;5.590;2022-07-15T07:12:13;5.30;;;1.63;;
29848;SDS011;16728;50.832;5.590;2022-07-15T07:15:15;7.65;;;1.92;;
29848;SDS011;16728;50.832;5.590;2022-07-15T07:18:19;9.23;;;2.38;;
29848;SDS011;16728;50.832;5.590;2022-07-15T07:21:20;8.27;;;2.20;;
29848;SDS011;16728;50.832;5.590;2022-07-15T07:24:31;5.10;;;1.90;;
29848;SDS011;16728;50.832;5.590;2022-07-15T07:27:33;10.88;;;2.35;;
29848;SDS011;16728;50.832;5.590;2022-07-15T07:30:35;7.25;;;2.63;;
29848;SDS011;16728;50.832;5.590;2022-07-15T07:33:37;9.85;;;2.53;;
29848;SDS011;16728;50.832;5.590;2022-07-15T07:36:40;6.18;;;2.05;;
29848;SDS011;16728;50.832;5.590;2022-07-15T07:39:42;5.53;;;2.17;;
29848;SDS011;16728;50.832;5.590;2022-07-15T07:42:44;5.30;;;1.60;;
29848;SDS011;16728;50.832;5.590;2022-07-15T07:45:47;6.85;;;1.58;;
29848;SDS011;16728;50.832;5.590;2022-07-15T07:48:49;7.43;;;1.50;;
29848;SDS011;16728;50.832;5.590;2022-07-15T07:52:11;3.33;;;1.60;;
29848;SDS011;16728;50.832;5.590;2022-07-15T07:55:13;5.82;;;1.42;;
29848;SDS011;16728;50.832;5.590;2022-07-15T07:58:16;5.40;;;1.25;;
29848;SDS011;16728;50.832;5.590;2022-07-15T08:01:18;21.27;;;2.93;;
29848;SDS011;16728;50.832;5.590;2022-07-15T08:04:21;4.97;;;1.77;;
29848;SDS011;16728;50.832;5.590;2022-07-15T08:07:23;6.05;;;1.50;;
29848;SDS011;16728;50.832;5.590;2022-07-15T08:10:25;7.45;;;1.40;;
29848;SDS011;16728;50.832;5.590;2022-07-15T08:13:27;9.98;;;1.50;;
29848;SDS011;16728;50.832;5.590;2022-07-15T08:19:35;5.78;;;1.10;;
29848;SDS011;16728;50.832;5.590;2022-07-15T08:22:37;4.75;;;1.50;;
29848;SDS011;16728;50.832;5.590;2022-07-15T08:25:39;12.27;;;1.70;;
29848;SDS011;16728;50.832;5.590;2022-07-15T08:28:41;5.40;;;1.60;;
29848;SDS011;16728;50.832;5.590;2022-07-15T08:32:03;4.47;;;1.48;;
29848;SDS011;16728;50.832;5.590;2022-07-15T08:35:06;7.25;;;1.30;;
29848;SDS011;16728;50.832;5.590;2022-07-15T08:38:13;6.35;;;1.35;;
29848;SDS011;16728;50.832;5.590;2022-07-15T08:41:14;3.92;;;1.48;;
29848;SDS011;16728;50.832;5.590;2022-07-15T08:44:17;5.78;;;1.48;;
29848;SDS011;16728;50.832;5.590;2022-07-15T08:47:19;5.72;;;1.27;;
29848;SDS011;16728;50.832;5.590;2022-07-15T08:50:45;5.70;;;1.50;;
29848;SDS011;16728;50.832;5.590;2022-07-15T08:53:47;2.50;;;1.13;;
29848;SDS011;16728;50.832;5.590;2022-07-15T08:56:49;4.47;;;1.10;;
29848;SDS011;16728;50.832;5.590;2022-07-15T08:59:52;7.23;;;1.33;;
29848;SDS011;16728;50.832;5.590;2022-07-15T09:02:58;4.97;;;1.23;;
29848;SDS011;16728;50.832;5.590;2022-07-15T09:06:01;4.38;;;1.42;;
29848;SDS011;16728;50.832;5.590;2022-07-15T09:12:25;5.90;;;2.28;;
29848;SDS011;16728;50.832;5.590;2022-07-15T09:15:27;6.97;;;1.42;;
29848;SDS011;16728;50.832;5.590;2022-07-15T09:18:34;4.90;;;1.30;;
29848;SDS011;16728;50.832;5.590;2022-07-15T09:21:43;3.15;;;1.13;;
29848;SDS011;16728;50.832;5.590;2022-07-15T09:24:46;4.35;;;1.15;;
29848;SDS011;16728;50.832;5.590;2022-07-15T09:27:51;6.05;;;2.28;;
29848;SDS011;16728;50.832;5.590;2022-07-15T09:30:54;4.45;;;1.92;;
29848;SDS011;16728;50.832;5.590;2022-07-15T09:34:16;7.10;;;1.92;;
29848;SDS011;16728;50.832;5.590;2022-07-15T09:37:18;10.77;;;2.27;;
29848;SDS011;16728;50.832;5.590;2022-07-15T09:40:20;6.70;;;1.80;;
29848;SDS011;16728;50.832;5.590;2022-07-15T09:43:22;5.60;;;2.08;;
29848;SDS011;16728;50.832;5.590;2022-07-15T09:46:25;6.57;;;1.50;;
29848;SDS011;16728;50.832;5.590;2022-07-15T09:52:44;3.25;;;1.35;;
29848;SDS011;16728;50.832;5.590;2022-07-15T09:58:50;6.28;;;1.30;;
29848;SDS011;16728;50.832;5.590;2022-07-15T10:01:52;3.47;;;1.20;;
29848;SDS011;16728;50.832;5.590;2022-07-15T10:04:54;6.05;;;1.48;;
29848;SDS011;16728;50.832;5.590;2022-07-15T10:08:00;7.32;;;1.70;;
29848;SDS011;16728;50.832;5.590;2022-07-15T10:11:06;5.40;;;1.40;;
29848;SDS011;16728;50.832;5.590;2022-07-15T10:34:20;4.50;;;1.38;;
29848;SDS011;16728;50.832;5.590;2022-07-15T10:37:22;5.80;;;1.60;;
29848;SDS011;16728;50.832;5.590;2022-07-15T10:44:08;5.28;;;1.13;;
29848;SDS011;16728;50.832;5.590;2022-07-15T10:50:34;3.95;;;1.00;;
29848;SDS011;16728;50.832;5.590;2022-07-15T10:53:47;4.53;;;1.27;;
29848;SDS011;16728;50.832;5.590;2022-07-15T10:56:49;5.13;;;1.10;;
29848;SDS011;16728;50.832;5.590;2022-07-15T10:59:53;5.17;;;1.07;;
29848;SDS011;16728;50.832;5.590;2022-07-15T11:03:00;2.70;;;1.00;;
29848;SDS011;16728;50.832;5.590;2022-07-15T11:06:08;5.43;;;1.25;;
29848;SDS011;16728;50.832;5.590;2022-07-15T11:09:10;4.30;;;1.50;;
29848;SDS011;16728;50.832;5.590;2022-07-15T11:12:13;5.28;;;0.90;;
29848;SDS011;16728;50.832;5.590;2022-07-15T11:15:20;2.67;;;0.98;;
29848;SDS011;16728;50.832;5.590;2022-07-15T11:18:24;5.25;;;1.10;;
29848;SDS011;16728;50.832;5.590;2022-07-15T11:21:26;3.67;;;1.10;;
29848;SDS011;16728;50.832;5.590;2022-07-15T11:24:30;1.50;;;0.82;;
29848;SDS011;16728;50.832;5.590;2022-07-15T11:27:32;2.50;;;0.80;;
29848;SDS011;16728;50.832;5.590;2022-07-15T11:33:40;2.35;;;0.90;;
29848;SDS011;16728;50.832;5.590;2022-07-15T11:36:42;5.18;;;1.35;;
29848;SDS011;16728;50.832;5.590;2022-07-15T11:39:48;4.45;;;0.90;;
29848;SDS011;16728;50.832;5.590;2022-07-15T11:42:51;2.70;;;0.90;;
29848;SDS011;16728;50.832;5.590;2022-07-15T11:46:12;2.35;;;1.02;;
29848;SDS011;16728;50.832;5.590;2022-07-15T11:52:33;4.80;;;1.50;;
29848;SDS011;16728;50.832;5.590;2022-07-15T11:55:34;3.72;;;0.90;;
29848;SDS011;16728;50.832;5.590;2022-07-15T11:59:00;3.13;;;0.98;;
29848;SDS011;16728;50.832;5.590;2022-07-15T12:02:03;7.18;;;1.08;;
29848;SDS011;16728;50.832;5.590;2022-07-15T12:05:10;4.05;;;1.10;;
29848;SDS011;16728;50.832;5.590;2022-07-15T12:08:12;2.73;;;0.90;;
29848;SDS011;16728;50.832;5.590;2022-07-15T12:11:15;2.80;;;1.20;;
29848;SDS011;16728;50.832;5.590;2022-07-15T12:14:22;4.45;;;0.93;;
29848;SDS011;16728;50.832;5.590;2022-07-15T12:17:24;6.00;;;0.80;;
29848;SDS011;16728;50.832;5.590;2022-07-15T12:20:26;6.95;;;1.10;;
29848;SDS011;16728;50.832;5.590;2022-07-15T12:23:29;4.43;;;1.10;;
29848;SDS011;16728;50.832;5.590;2022-07-15T12:26:31;4.55;;;0.73;;
29848;SDS011;16728;50.832;5.590;2022-07-15T12:29:35;4.78;;;0.80;;
29848;SDS011;16728;50.832;5.590;2022-07-15T12:33:16;4.53;;;1.00;;
29848;SDS011;16728;50.832;5.590;2022-07-15T12:36:21;5.20;;;0.90;;
29848;SDS011;16728;50.832;5.590;2022-07-15T12:39:25;3.03;;;1.00;;
29848;SDS011;16728;50.832;5.590;2022-07-15T12:45:51;3.47;;;1.00;;
29848;SDS011;16728;50.832;5.590;2022-07-15T12:48:54;2.17;;;0.65;;
29848;SDS011;16728;50.832;5.590;2022-07-15T12:51:57;1.70;;;0.80;;
29848;SDS011;16728;50.832;5.590;2022-07-15T12:55:00;2.85;;;0.80;;
29848;SDS011;16728;50.832;5.590;2022-07-15T12:58:24;2.70;;;0.75;;
29848;SDS011;16728;50.832;5.590;2022-07-15T13:01:27;3.75;;;0.73;;
29848;SDS011;16728;50.832;5.590;2022-07-15T13:04:29;3.10;;;1.00;;
29848;SDS011;16728;50.832;5.590;2022-07-15T13:07:31;3.17;;;0.70;;
29848;SDS011;16728;50.832;5.590;2022-07-15T13:13:37;1.83;;;0.55;;
29848;SDS011;16728;50.832;5.590;2022-07-15T13:16:40;1.60;;;0.63;;
29848;SDS011;16728;50.832;5.590;2022-07-15T13:19:42;4.30;;;0.60;;
29848;SDS011;16728;50.832;5.590;2022-07-15T13:22:44;2.95;;;0.68;;
29848;SDS011;16728;50.832;5.590;2022-07-15T13:25:47;2.37;;;0.70;;
29848;SDS011;16728;50.832;5.590;2022-07-15T13:28:49;2.00;;;0.60;;
29848;SDS011;16728;50.832;5.590;2022-07-15T13:31:51;5.47;;;1.15;;
29848;SDS011;16728;50.832;5.590;2022-07-15T13:34:53;3.92;;;0.70;;
29848;SDS011;16728;50.832;5.590;2022-07-15T13:37:54;6.82;;;0.90;;
29848;SDS011;16728;50.832;5.590;2022-07-15T13:40:56;2.25;;;0.60;;
29848;SDS011;16728;50.832;5.590;2022-07-15T13:43:58;3.70;;;0.85;;
29848;SDS011;16728;50.832;5.590;2022-07-15T13:47:00;4.20;;;0.85;;
29848;SDS011;16728;50.832;5.590;2022-07-15T13:50:02;3.80;;;1.13;;
29848;SDS011;16728;50.832;5.590;2022-07-15T13:53:23;2.42;;;0.70;;
29848;SDS011;16728;50.832;5.590;2022-07-15T13:56:26;2.20;;;0.60;;
29848;SDS011;16728;50.832;5.590;2022-07-15T13:59:27;2.83;;;0.70;;
29848;SDS011;16728;50.832;5.590;2022-07-15T14:02:29;3.90;;;0.70;;
29848;SDS011;16728;50.832;5.590;2022-07-15T14:05:31;4.65;;;0.90;;
29848;SDS011;16728;50.832;5.590;2022-07-15T14:08:33;3.58;;;0.68;;
29848;SDS011;16728;50.832;5.590;2022-07-15T14:11:35;3.60;;;0.50;;
29848;SDS011;16728;50.832;5.590;2022-07-15T14:14:37;2.28;;;0.85;;
29848;SDS011;16728;50.832;5.590;2022-07-15T14:17:40;2.40;;;0.95;;
29848;SDS011;16728;50.832;5.590;2022-07-15T14:20:42;1.77;;;0.80;;
29848;SDS011;16728;50.832;5.590;2022-07-15T14:23:47;4.25;;;0.80;;
29848;SDS011;16728;50.832;5.590;2022-07-15T14:26:50;4.40;;;0.80;;
29848;SDS011;16728;50.832;5.590;2022-07-15T14:29:52;4.38;;;0.93;;
29848;SDS011;16728;50.832;5.590;2022-07-15T14:33:00;1.67;;;0.77;;
29848;SDS011;16728;50.832;5.590;2022-07-15T14:36:02;2.28;;;0.80;;
29848;SDS011;16728;50.832;5.590;2022-07-15T14:39:04;2.58;;;0.95;;
29848;SDS011;16728;50.832;5.590;2022-07-15T14:42:06;3.47;;;0.75;;
29848;SDS011;16728;50.832;5.590;2022-07-15T14:45:08;3.72;;;0.50;;
29848;SDS011;16728;50.832;5.590;2022-07-15T14:48:10;3.75;;;0.88;;
29848;SDS011;16728;50.832;5.590;2022-07-15T14:51:12;2.63;;;0.80;;
29848;SDS011;16728;50.832;5.590;2022-07-15T14:54:14;3.13;;;1.00;;
29848;SDS011;16728;50.832;5.590;2022-07-15T14:57:16;10.00;;;1.42;;
29848;SDS011;16728;50.832;5.590;2022-07-15T15:00:18;5.82;;;1.00;;
29848;SDS011;16728;50.832;5.590;2022-07-15T15:03:20;2.92;;;0.88;;
29848;SDS011;16728;50.832;5.590;2022-07-15T15:06:21;2.97;;;0.70;;
29848;SDS011;16728;50.832;5.590;2022-07-15T15:09:24;11.82;;;0.90;;
29848;SDS011;16728;50.832;5.590;2022-07-15T15:12:27;1.40;;;0.63;;
29848;SDS011;16728;50.832;5.590;2022-07-15T15:15:29;4.40;;;1.10;;
29848;SDS011;16728;50.832;5.590;2022-07-15T15:18:31;1.65;;;0.65;;
29848;SDS011;16728;50.832;5.590;2022-07-15T15:21:33;6.38;;;0.68;;
29848;SDS011;16728;50.832;5.590;2022-07-15T15:24:35;2.80;;;0.70;;
29848;SDS011;16728;50.832;5.590;2022-07-15T15:27:37;2.90;;;0.82;;
29848;SDS011;16728;50.832;5.590;2022-07-15T15:30:39;1.30;;;0.60;;
29848;SDS011;16728;50.832;5.590;2022-07-15T15:33:41;4.53;;;0.63;;
29848;SDS011;16728;50.832;5.590;2022-07-15T15:36:44;3.10;;;0.80;;
29848;SDS011;16728;50.832;5.590;2022-07-15T15:39:48;3.42;;;0.70;;
29848;SDS011;16728;50.832;5.590;2022-07-15T15:42:50;4.35;;;0.63;;
29848;SDS011;16728;50.832;5.590;2022-07-15T15:45:52;2.78;;;0.70;;
29848;SDS011;16728;50.832;5.590;2022-07-15T15:48:54;3.08;;;0.90;;
29848;SDS011;16728;50.832;5.590;2022-07-15T15:51:56;2.63;;;0.82;;
29848;SDS011;16728;50.832;5.590;2022-07-15T15:54:58;1.58;;;0.50;;
29848;SDS011;16728;50.832;5.590;2022-07-15T15:58:00;3.67;;;0.80;;
29848;SDS011;16728;50.832;5.590;2022-07-15T16:01:22;2.58;;;1.00;;
29848;SDS011;16728;50.832;5.590;2022-07-15T16:04:24;2.35;;;0.60;;
29848;SDS011;16728;50.832;5.590;2022-07-15T16:07:26;2.15;;;0.70;;
29848;SDS011;16728;50.832;5.590;2022-07-15T16:10:28;5.32;;;1.00;;
29848;SDS011;16728;50.832;5.590;2022-07-15T16:13:30;1.77;;;0.73;;
29848;SDS011;16728;50.832;5.590;2022-07-15T16:16:32;5.82;;;0.98;;
29848;SDS011;16728;50.832;5.590;2022-07-15T16:19:35;4.68;;;0.70;;
29848;SDS011;16728;50.832;5.590;2022-07-15T16:22:38;4.40;;;0.85;;
29848;SDS011;16728;50.832;5.590;2022-07-15T16:25:54;3.30;;;0.80;;
29848;SDS011;16728;50.832;5.590;2022-07-15T16:28:56;5.38;;;0.90;;
29848;SDS011;16728;50.832;5.590;2022-07-15T16:31:58;2.70;;;0.88;;
29848;SDS011;16728;50.832;5.590;2022-07-15T16:35:00;3.10;;;1.02;;
29848;SDS011;16728;50.832;5.590;2022-07-15T16:38:03;4.23;;;1.00;;
29848;SDS011;16728;50.832;5.590;2022-07-15T16:41:06;1.85;;;0.60;;
29848;SDS011;16728;50.832;5.590;2022-07-15T16:44:08;2.60;;;0.90;;
29848;SDS011;16728;50.832;5.590;2022-07-15T16:47:10;3.00;;;0.70;;
29848;SDS011;16728;50.832;5.590;2022-07-15T16:50:12;1.67;;;0.70;;
29848;SDS011;16728;50.832;5.590;2022-07-15T16:53:15;3.17;;;0.68;;
29848;SDS011;16728;50.832;5.590;2022-07-15T16:56:17;3.38;;;0.73;;
29848;SDS011;16728;50.832;5.590;2022-07-15T16:59:19;3.38;;;0.70;;
29848;SDS011;16728;50.832;5.590;2022-07-15T17:02:22;2.13;;;0.65;;
29848;SDS011;16728;50.832;5.590;2022-07-15T17:05:24;3.65;;;0.98;;
29848;SDS011;16728;50.832;5.590;2022-07-15T17:08:34;2.28;;;0.80;;
29848;SDS011;16728;50.832;5.590;2022-07-15T17:11:36;5.43;;;0.90;;
29848;SDS011;16728;50.832;5.590;2022-07-15T17:14:38;2.60;;;0.82;;
29848;SDS011;16728;50.832;5.590;2022-07-15T17:17:40;3.17;;;0.93;;
29848;SDS011;16728;50.832;5.590;2022-07-15T17:20:46;2.88;;;0.88;;
29848;SDS011;16728;50.832;5.590;2022-07-15T17:23:48;3.70;;;0.93;;
29848;SDS011;16728;50.832;5.590;2022-07-15T17:26:50;3.67;;;1.15;;
29848;SDS011;16728;50.832;5.590;2022-07-15T17:29:51;7.68;;;0.93;;
29848;SDS011;16728;50.832;5.590;2022-07-15T17:32:53;1.70;;;0.88;;
29848;SDS011;16728;50.832;5.590;2022-07-15T17:36:15;5.00;;;1.17;;
29848;SDS011;16728;50.832;5.590;2022-07-15T17:39:22;3.95;;;0.80;;
29848;SDS011;16728;50.832;5.590;2022-07-15T17:42:24;2.53;;;0.90;;
29848;SDS011;16728;50.832;5.590;2022-07-15T17:45:26;5.53;;;1.20;;
29848;SDS011;16728;50.832;5.590;2022-07-15T17:48:28;3.33;;;0.80;;
29848;SDS011;16728;50.832;5.590;2022-07-15T17:51:30;7.05;;;1.20;;
29848;SDS011;16728;50.832;5.590;2022-07-15T17:54:32;1.77;;;0.70;;
29848;SDS011;16728;50.832;5.590;2022-07-15T17:57:34;2.95;;;0.90;;
29848;SDS011;16728;50.832;5.590;2022-07-15T18:00:36;2.53;;;1.00;;
29848;SDS011;16728;50.832;5.590;2022-07-15T18:03:37;6.05;;;0.80;;
29848;SDS011;16728;50.832;5.590;2022-07-15T18:06:39;3.88;;;1.10;;
29848;SDS011;16728;50.832;5.590;2022-07-15T18:09:42;3.72;;;0.93;;
29848;SDS011;16728;50.832;5.590;2022-07-15T18:12:45;2.17;;;1.00;;
29848;SDS011;16728;50.832;5.590;2022-07-15T18:15:48;1.45;;;1.10;;
29848;SDS011;16728;50.832;5.590;2022-07-15T18:18:51;8.32;;;1.08;;
29848;SDS011;16728;50.832;5.590;2022-07-15T18:21:53;4.78;;;1.10;;
29848;SDS011;16728;50.832;5.590;2022-07-15T18:24:57;3.35;;;1.00;;
29848;SDS011;16728;50.832;5.590;2022-07-15T18:27:58;2.03;;;1.10;;
29848;SDS011;16728;50.832;5.590;2022-07-15T18:31:00;18.08;;;1.35;;
29848;SDS011;16728;50.832;5.590;2022-07-15T18:34:03;3.50;;;1.10;;
29848;SDS011;16728;50.832;5.590;2022-07-15T18:37:05;3.00;;;1.10;;
29848;SDS011;16728;50.832;5.590;2022-07-15T18:40:07;1.55;;;1.00;;
29848;SDS011;16728;50.832;5.590;2022-07-15T18:43:10;3.90;;;1.20;;
29848;SDS011;16728;50.832;5.590;2022-07-15T18:46:12;4.93;;;1.20;;
29848;SDS011;16728;50.832;5.590;2022-07-15T18:49:15;6.43;;;1.23;;
29848;SDS011;16728;50.832;5.590;2022-07-15T18:52:17;3.25;;;1.00;;
29848;SDS011;16728;50.832;5.590;2022-07-15T18:55:18;7.88;;;1.20;;
29848;SDS011;16728;50.832;5.590;2022-07-15T18:58:20;4.47;;;1.30;;
29848;SDS011;16728;50.832;5.590;2022-07-15T19:01:23;1.48;;;1.00;;
29848;SDS011;16728;50.832;5.590;2022-07-15T19:04:25;3.25;;;1.00;;
29848;SDS011;16728;50.832;5.590;2022-07-15T19:07:30;3.67;;;1.02;;
29848;SDS011;16728;50.832;5.590;2022-07-15T19:10:32;2.00;;;0.98;;
29848;SDS011;16728;50.832;5.590;2022-07-15T19:13:35;5.10;;;1.40;;
29848;SDS011;16728;50.832;5.590;2022-07-15T19:16:37;4.20;;;1.08;;
29848;SDS011;16728;50.832;5.590;2022-07-15T19:19:39;3.85;;;1.00;;